| time (UTC) | temp F | wind direction | speed knots | gust knots | rain 1hr in | rain 24hr in | rain mn in | humidity % | barometer mb |
| 20260510020032 | 54 | 213 | 5.2 | 9.6 | 0.00 | 0.00 | 0.00 | 58 | 1006.0 |
| 20260510014526 | 57 | 140 | 5.2 | 11.3 | 0.00 | 0.00 | 0.00 | 49 | 1004.7 |
| 20260510013025 | 62 | 328 | 0.9 | 4.3 | 0.00 | 0.00 | 0.00 | 38 | 1003.6 |
| 20260510011516 | 63 | 61 | 0.0 | 0.9 | 0.00 | 0.00 | 0.00 | 37 | 1002.8 |
| 20260510010055 | 65 | 60 | 0.0 | 3.5 | 0.00 | 0.00 | 0.00 | 34 | 1002.5 |
| 20260510004530 | 66 | 53 | 0.9 | 3.5 | 0.00 | 0.00 | 0.00 | 31 | 1002.3 |
| 20260510003019 | 66 | 62 | 0.9 | 2.6 | 0.00 | 0.00 | 0.00 | 32 | 1002.2 |
| 20260510001517 | 67 | 47 | 0.9 | 3.5 | 0.00 | 0.00 | 0.00 | 31 | 1002.1 |
| 20260510000042 | 68 | 63 | 0.9 | 4.3 | 0.00 | 0.00 | 0.00 | 27 | 1002.0 |
| 20260509234523 | 68 | 94 | 1.7 | 3.5 | 0.00 | 0.00 | 0.00 | 28 | 1001.9 |
| 20260509233021 | 67 | 63 | 1.7 | 3.5 | 0.00 | 0.00 | 0.00 | 29 | 1001.9 |
| 20260509231556 | 67 | 324 | 0.0 | 2.6 | 0.00 | 0.00 | 0.00 | 28 | 1001.9 |
| 20260509230033 | 66 | 136 | 1.7 | 13.9 | 0.00 | 0.00 | 0.00 | 27 | 1001.8 |
| 20260509224522 | 66 | 282 | 1.7 | 12.2 | 0.00 | 0.00 | 0.00 | 25 | 1001.9 |
| 20260509223016 | 68 | 44 | 1.7 | 7.0 | 0.00 | 0.00 | 0.00 | 30 | 1001.6 |
| 20260509221515 | 69 | 73 | 2.6 | 6.1 | 0.00 | 0.00 | 0.00 | 28 | 1001.4 |
| 20260509220032 | 71 | 73 | 3.5 | 7.8 | 0.00 | 0.00 | 0.00 | 25 | 1001.6 |
| 20260509214524 | 70 | 57 | 3.5 | 7.8 | 0.00 | 0.00 | 0.00 | 27 | 1001.5 |
| 20260509213027 | 69 | 59 | 1.7 | 7.0 | 0.00 | 0.00 | 0.00 | 29 | 1001.6 |
| 20260509211513 | 70 | 61 | 0.0 | 5.2 | 0.00 | 0.00 | 0.00 | 28 | 1001.6 |
| 20260509210034 | 68 | 273 | 6.1 | 19.1 | 0.00 | 0.00 | 0.00 | 24 | 1001.8 |
| 20260509204524 | 69 | 79 | 0.9 | 7.8 | 0.00 | 0.00 | 0.00 | 24 | 1001.9 |
| 20260509203025 | 71 | 47 | 1.7 | 7.0 | 0.00 | 0.00 | 0.00 | 25 | 1001.6 |
| 20260509201517 | 76 | 45 | 2.6 | 7.0 | 0.00 | 0.00 | 0.00 | 26 | 1002.0 |
| 20260509200031 | 72 | 3 | 2.6 | 7.0 | 0.00 | 0.00 | 0.00 | 22 | 1002.1 |
| 20260509194529 | 76 | 34 | 2.6 | 10.4 | 0.00 | 0.00 | 0.00 | 24 | 1002.1 |
| 20260509193029 | 77 | 12 | 3.5 | 12.2 | 0.00 | 0.00 | 0.00 | 24 | 1002.3 |
| 20260509191607 | 77 | 48 | 3.5 | 10.4 | 0.00 | 0.00 | 0.00 | 21 | 1002.2 |
| 20260509190032 | 75 | 39 | 3.5 | 10.4 | 0.00 | 0.00 | 0.00 | 19 | 1002.5 |
| 20260509184534 | 76 | 239 | 3.5 | 7.0 | 0.00 | 0.00 | 0.00 | 21 | 1002.8 |
| 20260509183025 | 76 | 332 | 1.7 | 12.2 | 0.00 | 0.00 | 0.00 | 21 | 1003.0 |
| 20260509181514 | 75 | 19 | 1.7 | 10.4 | 0.00 | 0.00 | 0.00 | 21 | 1002.9 |
| 20260509180028 | 75 | 94 | 2.6 | 7.0 | 0.00 | 0.00 | 0.00 | 21 | 1003.2 |
| 20260509174524 | 74 | 306 | 1.7 | 6.1 | 0.00 | 0.00 | 0.00 | 22 | 1003.2 |
| 20260509173021 | 74 | 311 | 2.6 | 7.8 | 0.00 | 0.00 | 0.00 | 21 | 1003.4 |
| 20260509171514 | 73 | 300 | 1.7 | 5.2 | 0.00 | 0.00 | 0.00 | 22 | 1003.6 |
| 20260509170029 | 73 | 76 | 3.5 | 7.8 | 0.00 | 0.00 | 0.00 | 24 | 1003.7 |
| 20260509164526 | 72 | 356 | 0.9 | 7.0 | 0.00 | 0.00 | 0.00 | 24 | 1003.6 |
| 20260509163033 | 71 | 54 | 1.7 | 8.7 | 0.00 | 0.00 | 0.00 | 25 | 1003.4 |
| 20260509161601 | 70 | 355 | 2.6 | 9.6 | 0.00 | 0.00 | 0.00 | 22 | 1003.5 |
| 20260509160027 | 69 | 314 | 2.6 | 8.7 | 0.00 | 0.00 | 0.00 | 25 | 1003.5 |
| 20260509154518 | 68 | 140 | 3.5 | 7.0 | 0.00 | 0.00 | 0.00 | 25 | 1003.6 |
| 20260509153115 | 65 | 299 | 0.9 | 7.8 | 0.00 | 0.00 | 0.00 | 30 | 1003.7 |
| 20260509151529 | 65 | 198 | 1.7 | 7.0 | 0.00 | 0.00 | 0.00 | 30 | 1004.0 |
| 20260509150026 | 64 | 286 | 2.6 | 7.0 | 0.00 | 0.00 | 0.00 | 31 | 1004.3 |
| 20260509144524 | 62 | 201 | 1.7 | 7.8 | 0.00 | 0.00 | 0.00 | 32 | 1004.4 |
| 20260509143013 | 60 | 281 | 1.7 | 7.0 | 0.00 | 0.00 | 0.00 | 33 | 1004.3 |
| 20260509141532 | 60 | 314 | 0.9 | 6.1 | 0.00 | 0.00 | 0.00 | 37 | 1004.3 |
| 20260509140025 | 58 | 270 | 0.0 | 2.6 | 0.00 | 0.00 | 0.00 | 43 | 1004.4 |
| 20260509134516 | 53 | 180 | 0.0 | 1.7 | 0.00 | 0.00 | 0.00 | 51 | 1004.4 |
| 20260509133013 | 53 | 185 | 0.0 | 1.7 | 0.00 | 0.00 | 0.00 | 51 | 1004.3 |
| 20260509131527 | 51 | 190 | 0.0 | 1.7 | 0.00 | 0.00 | 0.00 | 56 | 1004.2 |
| 20260509130031 | 51 | 190 | 0.0 | 1.7 | 0.00 | 0.00 | 0.00 | 55 | 1004.1 |
| 20260509124520 | 52 | 180 | 0.9 | 2.6 | 0.00 | 0.00 | 0.00 | 53 | 1004.0 |
| 20260509123018 | 50 | 219 | 0.9 | 1.7 | 0.00 | 0.00 | 0.00 | 57 | 1003.7 |
| 20260509121523 | 49 | 194 | 0.0 | 1.7 | 0.00 | 0.00 | 0.00 | 59 | 1003.7 |
| 20260509120026 | 48 | 200 | 0.0 | 1.7 | 0.00 | 0.00 | 0.00 | 59 | 1003.6 |
| 20260509114521 | 48 | 209 | 0.0 | 1.7 | 0.00 | 0.00 | 0.00 | 60 | 1003.4 |
| 20260509113019 | 49 | 217 | 0.0 | 2.6 | 0.00 | 0.00 | 0.00 | 60 | 1003.3 |
| 20260509111532 | 49 | 185 | 0.9 | 2.6 | 0.00 | 0.00 | 0.00 | 59 | 1003.3 |
| 20260509110026 | 50 | 225 | 0.9 | 3.5 | 0.00 | 0.00 | 0.00 | 57 | 1003.2 |
| 20260509104525 | 49 | 256 | 0.9 | 2.6 | 0.00 | 0.00 | 0.00 | 59 | 1003.3 |
| 20260509103018 | 50 | 232 | 0.0 | 1.7 | 0.00 | 0.00 | 0.00 | 59 | 1003.2 |
| 20260509101610 | 50 | 242 | 0.0 | 1.7 | 0.00 | 0.00 | 0.00 | 58 | 1003.3 |
| 20260509100031 | 50 | 235 | 0.0 | 2.6 | 0.00 | 0.00 | 0.00 | 57 | 1003.2 |
| 20260509094523 | 51 | 252 | 0.9 | 3.5 | 0.00 | 0.00 | 0.00 | 56 | 1003.3 |
| 20260509093022 | 53 | 244 | 1.7 | 4.3 | 0.00 | 0.00 | 0.00 | 52 | 1003.2 |
| 20260509091532 | 53 | 197 | 1.7 | 3.5 | 0.00 | 0.00 | 0.00 | 52 | 1003.3 |
| 20260509090034 | 54 | 176 | 1.7 | 4.3 | 0.00 | 0.00 | 0.00 | 51 | 1003.4 |
| 20260509084523 | 54 | 201 | 0.9 | 4.3 | 0.00 | 0.00 | 0.00 | 50 | 1003.4 |
| 20260509083032 | 54 | 204 | 2.6 | 7.0 | 0.00 | 0.00 | 0.00 | 51 | 1003.6 |
| 20260509081516 | 54 | 202 | 0.9 | 7.0 | 0.00 | 0.00 | 0.00 | 51 | 1003.7 |
| 20260509080029 | 54 | 180 | 2.6 | 7.0 | 0.00 | 0.00 | 0.00 | 52 | 1003.7 |
| 20260509074522 | 54 | 221 | 1.7 | 7.8 | 0.00 | 0.00 | 0.00 | 53 | 1003.7 |
| 20260509073028 | 53 | 115 | 1.7 | 7.0 | 0.00 | 0.00 | 0.00 | 53 | 1003.8 |
| 20260509071604 | 53 | 200 | 1.7 | 5.2 | 0.00 | 0.00 | 0.00 | 54 | 1004.0 |
| 20260509070026 | 54 | 226 | 1.7 | 7.8 | 0.00 | 0.00 | 0.00 | 54 | 1004.2 |
| 20260509064524 | 54 | 197 | 1.7 | 7.0 | 0.00 | 0.00 | 0.00 | 53 | 1004.5 |
| 20260509063023 | 54 | 212 | 2.6 | 7.0 | 0.00 | 0.00 | 0.00 | 54 | 1004.7 |
| 20260509061522 | 54 | 240 | 1.7 | 7.8 | 0.00 | 0.00 | 0.00 | 53 | 1005.1 |
| 20260509060029 | 54 | 155 | 3.5 | 9.6 | 0.00 | 0.00 | 0.00 | 54 | 1005.2 |
| 20260509054522 | 54 | 234 | 1.7 | 7.0 | 0.00 | 0.00 | 0.00 | 55 | 1005.6 |
| 20260509053020 | 54 | 223 | 2.6 | 7.0 | 0.00 | 0.00 | 0.00 | 54 | 1005.6 |
| 20260509051515 | 55 | 228 | 1.7 | 6.1 | 0.00 | 0.00 | 0.00 | 53 | 1005.9 |
| 20260509050030 | 54 | 240 | 1.7 | 7.0 | 0.00 | 0.00 | 0.00 | 55 | 1005.9 |
| 20260509044526 | 53 | 223 | 0.9 | 3.5 | 0.00 | 0.00 | 0.00 | 58 | 1006.1 |
| 20260509043020 | 54 | 194 | 0.9 | 2.6 | 0.00 | 0.00 | 0.00 | 57 | 1006.5 |
| 20260509041514 | 54 | 190 | 0.0 | 1.7 | 0.00 | 0.00 | 0.00 | 57 | 1006.5 |
| 20260509040025 | 54 | 190 | 0.0 | 2.6 | 0.00 | 0.00 | 0.00 | 55 | 1006.3 |
| 20260509034535 | 54 | 200 | 0.9 | 3.5 | 0.00 | 0.00 | 0.00 | 55 | 1006.1 |
| 20260509031518 | 55 | 190 | 0.0 | 0.9 | 0.00 | 0.00 | 0.00 | 54 | 1005.8 |
| 20260509030052 | 55 | 155 | 0.0 | 1.7 | 0.00 | 0.00 | 0.00 | 53 | 1005.7 |
| 20260509024537 | 56 | 204 | 0.0 | 2.6 | 0.00 | 0.00 | 0.00 | 52 | 1005.5 |
| 20260509023032 | 56 | 7 | 0.9 | 3.5 | 0.00 | 0.00 | 0.00 | 52 | 1004.8 |
| 20260509021533 | 57 | 90 | 0.9 | 2.6 | 0.00 | 0.00 | 0.00 | 52 | 1004.8 |